Madras, OR

7:54 AM PDT on August 30, 2015 (GMT -0700)
Downtown Madras | | Change Station
CLOSE
Current Station
Personal Weather Station
Location: Madras, OR
Elevation: 2262 ft
Nearby Weather Stations

Elev 2262 ft 44.63 °N, 121.13 °W | Updated 6 seconds ago

Mostly Cloudy
Mostly Cloudy
60.9 °F
Feels Like 60.9 °F
N
9.0
Wind Variable Wind from South
Gusts 10.0 mph

Today
High -- | Low -- °F
--% Chance of Precip.
Yesterday
High -- | Low -- °F
Precip. -- in
6:24 AM 7:45 PM
Full, 99% visible
Pressure 29.88 in
Visibility 10.0 miles
Clouds Scattered Clouds 7000 ft
Dew Point 47 °F
Humidity 61%
Rainfall 0.00 in
Snow Depth Not available.
UV 0 out of 12
Pollen .50 out of 12
Air Quality Not available.
Flu Activity Not available.
METAR KRDM 301356Z 20011G22KT 10SM SCT070 14/06 A2993 RMK AO2 SLP116 T01440056
Pressure 29.88 in
Visibility 10.0 miles
Clouds Scattered Clouds 7000 ft
Dew Point 47 °F
Humidity 61%
Rainfall 0.00 in
Snow Depth Not available.
UV 0 out of 12
Pollen .50 out of 12
Air Quality Not available.
Flu Activity Not available.
METAR KRDM 301356Z 20011G22KT 10SM SCT070 14/06 A2993 RMK AO2 SLP116 T01440056

10-Day Weather Forecast

×

Almanac

Astronomy

Aug. 30, 2015 Rise Set
Actual Time
Civil Twilight
Nautical Twilight
Astronomical Twilight
Moon
Length of Visible Light
Length of Day
Tomorrow will be .
, % of the Moon is Illuminated

Today's Extremes

State Highs State Lows

Community

WunderPhotos

Upload Photos

1,850,974 photos uploaded!

WunderBlogs® & News

Nearby

Air Quality

  Air Quality AQ Index Pollutant
Not available.

Snow Depth

Station Depth Elevation

Earthquake Activity

City Distance Mag. Time & Date
Minimum magnitude displayed is 2.5.

Coastal Water Temperatures

Place Temperature

Stations

Nearby Weather Stations

Station Location Temp. Windchill Dew Point Humidity Wind Precip. Elev Updated Type